createdAt,value
2023-02-24T00:00:21.789Z,11.10
2023-02-24T00:02:58.110Z,11.65
2023-02-24T00:05:31.863Z,10.90
2023-02-24T00:08:20.350Z,11.35
2023-02-24T00:10:49.981Z,11.35
2023-02-24T00:13:36.344Z,12.10
2023-02-24T00:16:25.532Z,11.43
2023-02-24T00:18:55.906Z,10.88
2023-02-24T00:21:26.844Z,10.18
2023-02-24T00:24:00.329Z,10.10
2023-02-24T00:26:46.306Z,11.48
2023-02-24T00:29:18.706Z,11.40
2023-02-24T00:34:49.524Z,12.95
2023-02-24T00:37:47.865Z,10.82
2023-02-24T00:40:32.298Z,11.70
2023-02-24T00:43:06.332Z,13.02
2023-02-24T00:45:42.389Z,13.82
2023-02-24T00:48:16.112Z,11.65
2023-02-24T00:51:01.303Z,12.25
2023-02-24T00:53:30.074Z,13.30
2023-02-24T00:56:16.740Z,12.65
2023-02-24T00:59:05.577Z,11.20
2023-02-24T01:01:40.304Z,11.07
2023-02-24T01:04:19.223Z,11.02
2023-02-24T01:07:22.122Z,12.18
2023-02-24T01:10:07.088Z,12.10
2023-02-24T01:12:39.180Z,12.75
2023-02-24T01:15:19.318Z,8.55
2023-02-24T01:17:47.136Z,3.95
2023-02-24T01:20:23.684Z,1.67
2023-02-24T01:23:06.354Z,2.00
2023-02-24T01:25:46.927Z,1.40
2023-02-24T01:28:32.992Z,1.27
2023-02-24T01:31:17.433Z,1.25
2023-02-24T01:33:55.685Z,0.63
2023-02-24T01:36:26.780Z,0.70
2023-02-24T01:38:56.494Z,0.80
2023-02-24T01:41:33.688Z,0.40
2023-02-24T01:44:28.114Z,0.52
2023-02-24T01:47:04.281Z,0.30
2023-02-24T01:49:39.286Z,0.43
2023-02-24T01:52:19.802Z,0.60
2023-02-24T01:55:32.245Z,0.47
2023-02-24T01:58:06.905Z,0.93
2023-02-24T02:00:46.025Z,0.60
2023-02-24T02:03:34.005Z,0.70
2023-02-24T02:06:14.341Z,0.38
2023-02-24T02:08:45.791Z,0.70
2023-02-24T02:11:21.312Z,0.47
2023-02-24T02:14:15.828Z,1.30
2023-02-24T02:17:15.124Z,0.77
2023-02-24T02:20:16.227Z,0.70
2023-02-24T02:22:50.961Z,0.52
2023-02-24T02:25:32.221Z,0.60
2023-02-24T02:28:25.601Z,0.60
2023-02-24T02:31:30.853Z,0.60
2023-02-24T02:34:32.783Z,0.50
2023-02-24T02:37:35.531Z,0.50
2023-02-24T02:40:18.712Z,0.43
2023-02-24T02:43:09.512Z,0.60
2023-02-24T02:46:17.923Z,0.63
2023-02-24T02:49:40.555Z,0.82
2023-02-24T02:52:21.561Z,0.95
2023-02-24T02:55:43.492Z,0.70
2023-02-24T02:58:18.822Z,0.63
2023-02-24T03:01:01.970Z,0.90
2023-02-24T03:03:41.013Z,1.13
2023-02-24T03:06:24.670Z,0.70
2023-02-24T03:09:23.675Z,0.88
2023-02-24T03:12:02.452Z,0.85
2023-02-24T03:14:37.822Z,0.90
2023-02-24T03:17:12.953Z,0.90
2023-02-24T03:19:44.208Z,1.08
2023-02-24T03:22:18.123Z,0.70
2023-02-24T03:27:30.609Z,1.20
2023-02-24T03:30:09.870Z,1.15
2023-02-24T03:32:51.662Z,1.00
2023-02-24T03:35:30.558Z,0.95
2023-02-24T03:38:00.188Z,0.80
2023-02-24T03:40:33.497Z,0.70
2023-02-24T03:45:38.455Z,0.80
2023-02-24T03:48:09.664Z,0.70
2023-02-24T03:50:39.326Z,0.63
2023-02-24T03:53:42.372Z,0.80
2023-02-24T03:56:29.569Z,0.90
2023-02-24T04:02:25.882Z,0.70
2023-02-24T04:05:00.548Z,0.90
2023-02-24T04:08:11.730Z,0.80
2023-02-24T04:11:01.061Z,0.80
2023-02-24T04:13:40.892Z,1.00
2023-02-24T04:19:27.899Z,0.70
2023-02-24T04:22:02.102Z,0.80
2023-02-24T04:24:44.715Z,0.80
2023-02-24T04:27:17.481Z,0.98
2023-02-24T04:29:52.339Z,0.70
2023-02-24T04:32:28.400Z,0.77
2023-02-24T04:35:07.028Z,0.90
2023-02-24T04:37:40.357Z,0.70
2023-02-24T04:40:14.117Z,0.88
2023-02-24T04:42:51.843Z,1.52
2023-02-24T04:45:35.764Z,0.77
2023-02-24T04:48:14.132Z,0.80
2023-02-24T04:50:55.484Z,0.98
2023-02-24T04:53:28.662Z,1.10
2023-02-24T04:55:59.209Z,1.00
2023-02-24T04:58:30.862Z,1.20
2023-02-24T05:01:17.570Z,0.70
2023-02-24T05:03:51.862Z,0.80
2023-02-24T05:06:22.121Z,0.80
2023-02-24T05:09:02.935Z,0.88
2023-02-24T05:12:01.236Z,0.80
2023-02-24T05:14:29.142Z,0.70
2023-02-24T05:20:00.135Z,0.88
2023-02-24T05:22:30.459Z,1.10
2023-02-24T05:25:00.704Z,0.90
2023-02-24T05:27:51.947Z,1.08
2023-02-24T05:30:22.370Z,1.50
2023-02-24T05:32:54.750Z,1.30
2023-02-24T05:35:25.825Z,1.25
2023-02-24T05:37:53.253Z,1.50
2023-02-24T05:40:32.570Z,1.23
2023-02-24T05:43:26.502Z,1.33
2023-02-24T05:45:57.645Z,1.30
2023-02-24T05:48:30.712Z,1.60
2023-02-24T05:59:21.743Z,1.77
2023-02-24T06:01:54.781Z,1.92
2023-02-24T06:04:30.415Z,2.05
2023-02-24T06:07:07.145Z,2.28
2023-02-24T06:09:45.350Z,1.90
2023-02-24T06:12:17.795Z,2.17
2023-02-24T06:14:48.152Z,2.55
2023-02-24T06:17:36.150Z,2.50
2023-02-24T06:20:29.938Z,2.80
2023-02-24T06:23:02.303Z,2.58
2023-02-24T06:28:25.486Z,2.72
2023-02-24T06:30:52.804Z,2.50
2023-02-24T06:36:22.904Z,2.95
2023-02-24T06:41:53.641Z,2.97
2023-02-24T06:44:24.520Z,2.63
2023-02-24T06:49:51.223Z,2.50
2023-02-24T06:52:21.752Z,3.10
2023-02-24T06:55:01.181Z,3.50
2023-02-24T06:57:43.463Z,3.95
2023-02-24T07:00:20.664Z,2.90
2023-02-24T07:02:48.720Z,2.90
2023-02-24T07:05:24.430Z,2.83
2023-02-24T07:07:57.164Z,3.08
2023-02-24T07:10:30.883Z,3.20
2023-02-24T07:15:39.024Z,3.25
2023-02-24T07:18:17.619Z,3.60
2023-02-24T07:20:56.943Z,3.38
2023-02-24T07:23:29.861Z,3.72
2023-02-24T07:26:06.697Z,3.67
2023-02-24T07:28:41.596Z,4.32
2023-02-24T07:31:34.869Z,3.47
2023-02-24T07:34:02.433Z,4.60
2023-02-24T07:36:55.103Z,5.03
2023-02-24T07:42:06.591Z,4.15
2023-02-24T07:44:44.861Z,4.25
2023-02-24T07:47:28.067Z,4.00
2023-02-24T07:49:55.792Z,3.97
2023-02-24T07:52:29.359Z,3.97
2023-02-24T07:55:13.122Z,4.38
2023-02-24T07:57:41.904Z,3.90
2023-02-24T08:00:36.305Z,4.80
2023-02-24T08:03:34.441Z,3.88
2023-02-24T08:06:41.254Z,3.42
2023-02-24T08:09:46.229Z,4.65
2023-02-24T08:12:30.698Z,4.43
2023-02-24T08:21:59.539Z,4.28
2023-02-24T08:24:36.031Z,3.95
2023-02-24T08:27:22.369Z,4.80
2023-02-24T08:30:14.880Z,3.75
2023-02-24T08:33:01.942Z,4.43
2023-02-24T08:35:36.151Z,4.18
2023-02-24T08:38:08.470Z,4.25
2023-02-24T08:40:53.491Z,5.13
2023-02-24T08:43:42.373Z,4.65
2023-02-24T08:46:33.742Z,4.38
2023-02-24T08:49:01.394Z,4.43
2023-02-24T08:51:40.672Z,4.65
2023-02-24T08:54:47.316Z,5.00
2023-02-24T08:57:21.045Z,4.40
2023-02-24T08:59:51.371Z,4.82
2023-02-24T09:02:30.048Z,4.82
2023-02-24T09:05:06.536Z,4.50
2023-02-24T09:10:28.827Z,4.60
2023-02-24T09:13:04.479Z,5.25
2023-02-24T09:15:50.449Z,5.05
2023-02-24T09:18:33.393Z,5.18
2023-02-24T09:21:29.942Z,5.13
2023-02-24T09:24:07.953Z,5.05
2023-02-24T09:26:43.668Z,4.57
2023-02-24T09:29:36.195Z,5.05
2023-02-24T09:32:12.425Z,4.55
2023-02-24T09:34:47.509Z,4.97
2023-02-24T09:37:31.858Z,4.20
2023-02-24T09:40:19.783Z,5.53
2023-02-24T09:42:47.666Z,4.78
2023-02-24T09:45:33.681Z,4.63
2023-02-24T09:48:23.235Z,5.15
2023-02-24T09:51:06.486Z,5.55
2023-02-24T09:53:49.530Z,4.03
2023-02-24T09:56:31.068Z,4.97
2023-02-24T09:59:26.509Z,4.90
2023-02-24T10:02:22.043Z,4.10
2023-02-24T10:04:55.664Z,4.85
2023-02-24T10:07:43.985Z,5.20
2023-02-24T10:10:30.925Z,5.32
2023-02-24T10:13:36.089Z,4.30
2023-02-24T10:16:09.803Z,5.32
2023-02-24T10:19:12.042Z,5.80
2023-02-24T10:22:09.361Z,4.35
2023-02-24T10:24:50.870Z,4.32
2023-02-24T10:27:33.333Z,4.70
2023-02-24T10:30:20.325Z,4.82
2023-02-24T10:33:09.271Z,4.90
2023-02-24T10:35:46.816Z,4.68
2023-02-24T10:38:36.983Z,4.78
2023-02-24T10:41:09.734Z,5.22
2023-02-24T10:43:48.658Z,4.57
2023-02-24T10:46:42.366Z,4.90
2023-02-24T10:51:55.413Z,5.03
2023-02-24T10:57:59.056Z,4.70
2023-02-24T11:00:50.613Z,4.85
2023-02-24T11:03:50.488Z,4.55
2023-02-24T11:06:51.483Z,4.23
2023-02-24T11:09:38.189Z,4.05
2023-02-24T11:12:38.501Z,5.68
2023-02-24T11:15:50.516Z,4.28
2023-02-24T11:18:28.329Z,3.72
2023-02-24T11:21:21.356Z,4.13
2023-02-24T11:24:13.780Z,4.28
2023-02-24T11:26:45.676Z,4.68
2023-02-24T11:29:40.969Z,4.57
2023-02-24T11:32:34.415Z,4.88
2023-02-24T11:35:30.604Z,3.90
2023-02-24T11:38:39.575Z,3.90
2023-02-24T11:41:22.034Z,3.53
2023-02-24T11:44:06.479Z,4.03
2023-02-24T11:46:47.946Z,4.03
2023-02-24T11:49:41.663Z,4.22
2023-02-24T11:52:19.940Z,4.20
2023-02-24T11:54:57.052Z,3.97
2023-02-24T11:57:53.698Z,4.10
2023-02-24T12:00:37.891Z,3.70
2023-02-24T12:03:59.251Z,3.63
2023-02-24T12:06:51.844Z,3.20
2023-02-24T12:09:28.812Z,4.20
2023-02-24T12:12:24.427Z,4.40
2023-02-24T12:15:14.774Z,4.30
2023-02-24T12:18:14.577Z,3.95
2023-02-24T12:20:53.333Z,4.07
2023-02-24T12:23:46.105Z,4.53
2023-02-24T12:26:20.474Z,3.38
2023-02-24T12:29:20.331Z,5.82
2023-02-24T12:32:28.412Z,3.92
2023-02-24T12:35:20.348Z,3.92
2023-02-24T12:38:12.746Z,3.78
2023-02-24T12:41:03.723Z,3.97
2023-02-24T12:44:01.940Z,4.95
2023-02-24T12:50:18.379Z,4.22
2023-02-24T12:53:00.902Z,4.15
2023-02-24T12:55:45.690Z,3.70
2023-02-24T12:58:35.162Z,4.60
2023-02-24T13:07:42.922Z,2.83
2023-02-24T13:10:32.175Z,2.58
2023-02-24T13:13:42.020Z,2.40
2023-02-24T13:16:16.365Z,2.80
2023-02-24T13:18:43.896Z,3.42
2023-02-24T13:21:28.503Z,2.53
2023-02-24T13:24:05.311Z,3.45
2023-02-24T13:26:41.368Z,2.03
2023-02-24T13:29:46.776Z,2.35
2023-02-24T13:32:47.359Z,2.13
2023-02-24T13:35:23.601Z,3.10
2023-02-24T13:38:10.418Z,2.58
2023-02-24T13:41:08.375Z,2.38
2023-02-24T13:43:40.230Z,2.47
2023-02-24T13:46:20.504Z,2.40
2023-02-24T13:49:28.149Z,2.60
2023-02-24T13:53:04.395Z,2.35
2023-02-24T13:55:55.127Z,1.83
2023-02-24T14:04:07.741Z,2.00
2023-02-24T14:10:01.811Z,2.30
2023-02-24T14:12:38.736Z,1.85
2023-02-24T14:18:36.794Z,1.75
2023-02-24T14:21:24.122Z,2.53
2023-02-24T14:24:22.476Z,2.85
2023-02-24T14:27:05.818Z,4.65
2023-02-24T14:29:56.274Z,4.00
2023-02-24T14:32:43.646Z,1.73
2023-02-24T14:36:11.872Z,2.35
2023-02-24T14:38:46.894Z,2.67
2023-02-24T14:41:40.939Z,2.90
2023-02-24T14:44:43.625Z,2.63
2023-02-24T14:47:14.641Z,2.80
2023-02-24T14:50:11.178Z,3.05
2023-02-24T14:52:48.578Z,4.00
2023-02-24T14:55:52.246Z,3.38
2023-02-24T14:58:32.251Z,3.40
2023-02-24T15:01:10.225Z,2.97
2023-02-24T15:03:44.601Z,3.85
2023-02-24T15:06:38.216Z,4.35
2023-02-24T15:09:13.448Z,3.60
2023-02-24T15:12:04.562Z,3.53
2023-02-24T15:14:33.089Z,3.35
2023-02-24T15:17:24.146Z,4.00
2023-02-24T15:20:04.049Z,3.20
2023-02-24T15:22:53.483Z,3.28
2023-02-24T15:25:46.697Z,3.60
2023-02-24T15:31:26.933Z,4.32
2023-02-24T15:34:05.911Z,3.97
2023-02-24T15:36:36.727Z,4.82
2023-02-24T15:39:20.924Z,5.05
2023-02-24T15:42:16.648Z,3.50
2023-02-24T15:44:58.001Z,3.63
2023-02-24T15:47:45.172Z,3.38
2023-02-24T15:50:21.814Z,3.20
2023-02-24T15:52:49.904Z,3.78
2023-02-24T15:55:25.959Z,4.40
2023-02-24T15:57:59.654Z,3.17
2023-02-24T16:00:36.468Z,3.38
2023-02-24T16:03:30.752Z,3.55
2023-02-24T16:06:12.712Z,3.53
2023-02-24T16:08:46.715Z,3.67
2023-02-24T16:11:19.298Z,3.60
2023-02-24T16:13:58.756Z,3.47
2023-02-24T16:16:30.510Z,3.65
2023-02-24T16:19:01.022Z,4.88
2023-02-24T16:21:45.580Z,7.20
2023-02-24T16:24:21.955Z,5.38
2023-02-24T16:29:35.011Z,4.07
2023-02-24T16:32:03.912Z,4.30
2023-02-24T16:34:31.676Z,4.82
2023-02-24T16:37:12.500Z,4.43
2023-02-24T16:39:55.670Z,4.28
2023-02-24T16:44:59.958Z,4.63
2023-02-24T16:47:30.115Z,4.90
2023-02-24T16:50:09.416Z,5.40
2023-02-24T16:52:51.353Z,4.13
2023-02-24T16:55:39.376Z,4.50
2023-02-24T17:00:59.714Z,5.13
2023-02-24T17:03:46.153Z,4.22
2023-02-24T17:09:02.914Z,3.83
2023-02-24T17:11:35.896Z,3.95
2023-02-24T17:14:07.534Z,4.03
2023-02-24T17:16:45.910Z,4.40
2023-02-24T17:19:18.257Z,4.10
2023-02-24T17:22:07.322Z,3.63
2023-02-24T17:24:35.945Z,4.50
2023-02-24T17:27:19.948Z,3.78
2023-02-24T17:29:57.731Z,3.67
2023-02-24T17:32:39.116Z,3.10
2023-02-24T17:35:22.572Z,3.95
2023-02-24T17:37:55.330Z,4.05
2023-02-24T17:40:25.164Z,3.13
2023-02-24T17:42:58.072Z,3.40
2023-02-24T17:45:28.737Z,3.75
2023-02-24T17:48:01.943Z,4.28
2023-02-24T17:50:39.915Z,2.97
2023-02-24T17:53:29.688Z,3.80
2023-02-24T17:56:08.026Z,3.50
2023-02-24T18:01:32.694Z,3.92
2023-02-24T18:04:14.965Z,5.03
2023-02-24T18:06:53.851Z,7.00
2023-02-24T18:09:31.328Z,5.65
2023-02-24T18:11:58.648Z,4.78
2023-02-24T18:14:29.116Z,3.83
2023-02-24T18:17:19.219Z,4.18
2023-02-24T18:19:51.870Z,4.30
2023-02-24T18:22:24.391Z,4.03
2023-02-24T18:24:52.001Z,3.95
2023-02-24T18:27:31.840Z,4.30
2023-02-24T18:30:04.471Z,4.18
2023-02-24T18:32:35.162Z,4.18
2023-02-24T18:35:16.221Z,4.50
2023-02-24T18:40:49.467Z,3.95
2023-02-24T18:43:19.793Z,4.93
2023-02-24T18:45:52.547Z,4.93
2023-02-24T18:48:20.866Z,5.80
2023-02-24T18:51:02.542Z,4.95
2023-02-24T18:53:37.041Z,4.70
2023-02-24T18:56:36.641Z,4.70
2023-02-24T18:59:12.379Z,4.55
2023-02-24T19:02:10.870Z,4.72
2023-02-24T19:04:45.028Z,5.60
2023-02-24T19:07:39.329Z,4.75
2023-02-24T19:10:18.044Z,4.47
2023-02-24T19:12:52.390Z,4.80
2023-02-24T19:15:40.374Z,5.07
2023-02-24T19:18:17.635Z,5.60
2023-02-24T19:21:13.112Z,5.00
2023-02-24T19:24:08.482Z,5.70
2023-02-24T19:26:51.429Z,6.22
2023-02-24T19:29:29.759Z,5.85
2023-02-24T19:32:08.510Z,6.10
2023-02-24T19:35:07.090Z,6.28
2023-02-24T19:37:38.482Z,6.35
2023-02-24T19:40:11.590Z,6.35
2023-02-24T19:43:15.565Z,5.72
2023-02-24T19:45:49.761Z,5.85
2023-02-24T19:48:34.784Z,6.35
2023-02-24T19:51:26.703Z,6.45
2023-02-24T19:54:08.934Z,6.32
2023-02-24T19:56:41.871Z,6.28
2023-02-24T19:59:13.458Z,5.78
2023-02-24T20:02:03.749Z,5.85
2023-02-24T20:04:42.945Z,5.68
2023-02-24T20:07:17.221Z,6.13
2023-02-24T20:10:23.560Z,6.90
2023-02-24T20:15:47.988Z,6.03
2023-02-24T20:18:27.991Z,6.30
2023-02-24T20:21:10.748Z,5.90
2023-02-24T20:23:43.088Z,5.82
2023-02-24T20:26:22.802Z,5.70
2023-02-24T20:29:01.582Z,5.80
2023-02-24T20:31:30.901Z,6.05
2023-02-24T20:34:01.706Z,6.57
2023-02-24T20:36:38.767Z,6.53
2023-02-24T20:39:13.093Z,6.57
2023-02-24T20:41:46.672Z,6.63
2023-02-24T20:44:17.550Z,6.32
2023-02-24T20:49:50.024Z,6.55
2023-02-24T20:52:20.769Z,6.75
2023-02-24T20:54:51.220Z,6.55
2023-02-24T20:57:19.450Z,6.88
2023-02-24T21:00:04.233Z,7.72
2023-02-24T21:02:47.935Z,7.00
2023-02-24T21:05:29.824Z,7.63
2023-02-24T21:08:20.221Z,7.13
2023-02-24T21:11:04.636Z,7.30
2023-02-24T21:13:50.082Z,7.40
2023-02-24T21:16:20.804Z,7.85
2023-02-24T21:19:00.840Z,8.50
2023-02-24T21:21:33.558Z,8.65
2023-02-24T21:24:15.837Z,8.27
2023-02-24T21:27:04.564Z,8.65
2023-02-24T21:29:43.774Z,8.30
2023-02-24T21:32:17.557Z,8.27
2023-02-24T21:35:04.428Z,8.18
2023-02-24T21:38:08.926Z,7.75
2023-02-24T21:41:03.443Z,8.15
2023-02-24T21:43:31.825Z,7.88
2023-02-24T21:46:14.790Z,8.23
2023-02-24T21:48:45.168Z,7.40
2023-02-24T21:51:33.625Z,8.57
2023-02-24T21:54:08.254Z,7.78
2023-02-24T21:56:57.487Z,7.45
2023-02-24T21:59:35.895Z,7.72
2023-02-24T22:02:16.087Z,8.43
2023-02-24T22:07:55.046Z,8.07
2023-02-24T22:10:35.841Z,7.78
2023-02-24T22:13:06.833Z,7.50
2023-02-24T22:15:39.442Z,8.27
2023-02-24T22:23:54.428Z,7.95
2023-02-24T22:26:36.600Z,8.63
2023-02-24T22:29:17.447Z,8.32
2023-02-24T22:31:48.376Z,8.00
2023-02-24T22:34:22.646Z,8.50
2023-02-24T22:36:53.790Z,8.57
2023-02-24T22:39:23.867Z,7.93
2023-02-24T22:41:59.965Z,8.85
2023-02-24T22:44:34.712Z,9.27
2023-02-24T22:47:08.699Z,8.68
2023-02-24T22:49:50.416Z,8.30
2023-02-24T22:52:21.038Z,8.93
2023-02-24T22:54:53.432Z,9.45
2023-02-24T22:57:21.157Z,9.35
2023-02-24T22:59:51.224Z,8.88
2023-02-24T23:02:21.400Z,9.65
2023-02-24T23:05:02.257Z,10.07
2023-02-24T23:07:34.600Z,9.45
2023-02-24T23:10:07.104Z,8.95
2023-02-24T23:12:43.472Z,8.68
2023-02-24T23:15:13.943Z,10.20
2023-02-24T23:17:49.539Z,8.95
2023-02-24T23:20:17.382Z,9.45
2023-02-24T23:23:03.100Z,9.57
2023-02-24T23:25:32.720Z,8.60
2023-02-24T23:28:04.080Z,9.98
2023-02-24T23:30:44.026Z,9.45
2023-02-24T23:33:15.676Z,9.95
2023-02-24T23:35:48.265Z,9.93
2023-02-24T23:38:15.898Z,9.77
2023-02-24T23:40:50.374Z,9.43
2023-02-24T23:43:26.903Z,9.65
2023-02-24T23:45:54.169Z,10.40
2023-02-24T23:48:21.615Z,10.23
2023-02-24T23:50:54.217Z,9.48
2023-02-24T23:53:36.912Z,8.98
2023-02-24T23:56:09.887Z,8.95
2023-02-24T23:58:41.023Z,9.82
